createdAt,value
2019-01-03T00:02:28.433Z,1.00
2019-01-03T00:05:15.393Z,1.00
2019-01-03T00:08:09.519Z,1.00
2019-01-03T00:10:56.712Z,1.00
2019-01-03T00:14:03.283Z,1.00
2019-01-03T00:16:51.821Z,1.00
2019-01-03T00:19:55.180Z,1.00
2019-01-03T00:22:41.729Z,1.00
2019-01-03T00:25:37.491Z,1.00
2019-01-03T00:28:24.541Z,1.00
2019-01-03T00:31:28.008Z,1.00
2019-01-03T00:34:11.532Z,1.00
2019-01-03T00:37:02.628Z,1.00
2019-01-03T00:39:45.765Z,1.00
2019-01-03T00:42:36.804Z,1.00
2019-01-03T00:45:23.473Z,1.00
2019-01-03T00:48:23.591Z,1.00
2019-01-03T00:51:11.796Z,1.00
2019-01-03T00:54:11.889Z,1.00
2019-01-03T00:57:09.396Z,1.00
2019-01-03T01:00:12.656Z,1.00
2019-01-03T01:03:07.116Z,1.00
2019-01-03T01:06:07.131Z,1.00
2019-01-03T01:08:54.489Z,1.00
2019-01-03T01:11:55.363Z,1.00
2019-01-03T01:14:42.867Z,1.00
2019-01-03T01:17:29.685Z,1.00
2019-01-03T01:20:16.629Z,1.00
2019-01-03T01:23:11.066Z,1.00
2019-01-03T01:26:02.313Z,1.00
2019-01-03T01:29:05.434Z,1.00
2019-01-03T01:32:11.459Z,1.00
2019-01-03T01:35:02.382Z,1.00
2019-01-03T01:37:50.570Z,1.00
2019-01-03T01:40:37.547Z,1.00
2019-01-03T01:43:24.520Z,1.00
2019-01-03T01:46:16.048Z,1.00
2019-01-03T01:49:16.598Z,1.00
2019-01-03T01:52:07.784Z,1.00
2019-01-03T01:55:02.073Z,1.00
2019-01-03T01:57:48.908Z,1.00
2019-01-03T02:00:35.947Z,1.00
2019-01-03T02:03:17.335Z,1.00
2019-01-03T02:06:08.554Z,1.00
2019-01-03T02:09:08.672Z,1.00
2019-01-03T02:12:05.869Z,1.00
2019-01-03T02:14:54.035Z,1.00
2019-01-03T02:17:34.527Z,1.00
2019-01-03T02:20:37.462Z,1.00
2019-01-03T02:23:28.721Z,1.00
2019-01-03T02:26:16.344Z,1.00
2019-01-03T02:29:03.385Z,1.00
2019-01-03T02:32:02.346Z,1.00
2019-01-03T02:35:05.531Z,1.00
2019-01-03T02:37:52.184Z,1.00
2019-01-03T02:40:43.550Z,1.00
2019-01-03T02:43:40.757Z,1.00
2019-01-03T02:46:27.548Z,1.00
2019-01-03T02:49:21.945Z,1.00
2019-01-03T02:52:00.866Z,1.00
2019-01-03T02:54:50.429Z,1.00
2019-01-03T02:57:38.642Z,1.00
2019-01-03T03:00:25.784Z,1.00
2019-01-03T03:03:20.012Z,1.00
2019-01-03T03:06:05.840Z,1.00
2019-01-03T03:08:47.303Z,1.00
2019-01-03T03:11:33.922Z,1.00
2019-01-03T03:14:37.470Z,1.00
2019-01-03T03:17:24.209Z,1.00
2019-01-03T03:20:21.429Z,1.00
2019-01-03T03:23:24.688Z,1.00
2019-01-03T03:26:06.340Z,1.00
2019-01-03T03:29:09.591Z,1.00
2019-01-03T03:32:07.077Z,1.00
2019-01-03T03:35:13.613Z,1.00
2019-01-03T03:38:16.879Z,1.00
2019-01-03T03:41:12.347Z,1.00
2019-01-03T03:44:05.665Z,1.00
2019-01-03T03:46:52.631Z,1.00
2019-01-03T03:49:50.056Z,1.00
2019-01-03T03:52:37.012Z,1.00
2019-01-03T03:55:24.260Z,1.00
2019-01-03T03:58:13.715Z,1.00
2019-01-03T04:01:00.436Z,1.00
2019-01-03T04:04:06.984Z,1.00
2019-01-03T04:06:58.610Z,1.00
2019-01-03T04:09:49.384Z,1.00
2019-01-03T04:12:34.605Z,1.00
2019-01-03T04:15:22.950Z,1.00
2019-01-03T04:18:26.269Z,1.00
2019-01-03T04:21:13.064Z,1.00
2019-01-03T04:23:53.948Z,1.00
2019-01-03T04:26:40.980Z,1.00
2019-01-03T04:29:28.186Z,1.00
2019-01-03T04:32:16.422Z,1.00
2019-01-03T04:35:13.680Z,1.00
2019-01-03T04:38:04.541Z,1.00
2019-01-03T04:40:52.748Z,1.00
2019-01-03T04:43:49.987Z,1.00
2019-01-03T04:46:44.136Z,1.00
2019-01-03T04:49:23.974Z,1.00
2019-01-03T04:52:09.068Z,1.00
2019-01-03T04:55:09.583Z,1.00
2019-01-03T04:57:57.845Z,1.00
2019-01-03T05:00:58.669Z,1.00
2019-01-03T05:03:55.872Z,1.00
2019-01-03T05:06:56.088Z,1.00
2019-01-03T05:09:59.140Z,1.00
2019-01-03T05:12:41.442Z,1.00
2019-01-03T05:15:47.717Z,1.00
2019-01-03T05:18:34.734Z,1.00
2019-01-03T05:21:17.667Z,1.00
2019-01-03T05:24:12.526Z,1.00
2019-01-03T05:27:01.815Z,1.00
2019-01-03T05:30:08.079Z,1.00
2019-01-03T05:32:59.119Z,1.00
2019-01-03T05:35:56.397Z,1.00
2019-01-03T05:38:43.090Z,1.00
2019-01-03T05:41:42.345Z,1.00
2019-01-03T05:44:30.536Z,1.00
2019-01-03T05:47:27.790Z,1.00
2019-01-03T05:50:24.945Z,1.00
2019-01-03T05:53:25.131Z,1.00
2019-01-03T05:56:12.035Z,1.00
2019-01-03T05:59:00.187Z,1.00
2019-01-03T06:01:48.487Z,1.00
2019-01-03T06:04:46.684Z,1.00
2019-01-03T06:07:33.551Z,1.00
2019-01-03T06:10:15.297Z,1.00
2019-01-03T06:12:55.402Z,1.00
2019-01-03T06:15:49.791Z,1.00
2019-01-03T06:18:43.555Z,1.00
2019-01-03T06:21:30.629Z,1.00
2019-01-03T06:24:34.089Z,1.00
2019-01-03T06:27:20.870Z,1.00
2019-01-03T06:30:17.730Z,1.00
2019-01-03T06:33:11.972Z,1.00
2019-01-03T06:36:03.250Z,1.00
2019-01-03T06:38:50.005Z,1.00
2019-01-03T06:41:38.187Z,1.00
2019-01-03T06:44:21.163Z,1.00
2019-01-03T06:47:27.655Z,1.00
2019-01-03T06:50:14.255Z,1.00
2019-01-03T06:53:08.511Z,1.00
2019-01-03T06:56:14.695Z,1.00
2019-01-03T06:59:17.992Z,1.00
2019-01-03T07:02:05.536Z,1.00
2019-01-03T07:04:42.614Z,1.00
2019-01-03T07:07:39.976Z,1.00
2019-01-03T07:10:46.329Z,1.00
2019-01-03T07:13:34.492Z,1.00
2019-01-03T07:16:34.803Z,1.00
2019-01-03T07:19:22.984Z,1.00
2019-01-03T07:22:09.766Z,1.00
2019-01-03T07:25:12.362Z,1.00
2019-01-03T07:28:15.827Z,1.00
2019-01-03T07:31:02.679Z,1.00
2019-01-03T07:33:49.869Z,1.00
2019-01-03T07:36:50.402Z,1.00
2019-01-03T07:39:50.493Z,1.00
2019-01-03T07:42:37.898Z,1.00
2019-01-03T07:45:39.626Z,1.00
2019-01-03T07:48:43.220Z,1.00
2019-01-03T07:51:43.646Z,1.00
2019-01-03T07:54:30.574Z,1.00
2019-01-03T07:57:28.057Z,1.00
2019-01-03T08:00:28.190Z,1.00
2019-01-03T08:03:19.217Z,1.00
2019-01-03T08:06:06.310Z,1.00
2019-01-03T08:09:12.775Z,1.00
2019-01-03T08:11:59.349Z,1.00
2019-01-03T08:14:46.186Z,1.00
2019-01-03T08:17:43.419Z,1.00
2019-01-03T08:20:28.379Z,1.00
2019-01-03T08:23:16.602Z,1.00
2019-01-03T08:26:12.218Z,1.00
2019-01-03T08:28:59.277Z,1.00
2019-01-03T08:31:51.792Z,1.00
2019-01-03T08:34:51.970Z,1.00
2019-01-03T08:37:58.335Z,1.00
2019-01-03T08:40:45.205Z,1.00
2019-01-03T08:43:42.619Z,1.00
2019-01-03T08:46:48.972Z,1.00
2019-01-03T08:49:52.446Z,1.00
2019-01-03T08:52:41.442Z,1.00
2019-01-03T08:55:38.458Z,1.00
2019-01-03T08:58:38.920Z,1.00
2019-01-03T09:01:42.531Z,1.00
2019-01-03T09:04:46.103Z,1.00
2019-01-03T09:07:34.013Z,1.00
2019-01-03T09:10:20.791Z,1.00
2019-01-03T09:13:14.730Z,1.00
2019-01-03T09:16:21.283Z,1.00
2019-01-03T09:19:12.241Z,1.00
2019-01-03T09:22:09.317Z,1.00
2019-01-03T09:24:56.014Z,1.00
2019-01-03T09:27:43.062Z,1.00
2019-01-03T09:30:25.172Z,1.00
2019-01-03T09:33:11.992Z,1.00
2019-01-03T09:36:00.529Z,1.00
2019-01-03T09:38:48.778Z,1.00
2019-01-03T09:41:41.451Z,1.00
2019-01-03T09:44:39.223Z,1.00
2019-01-03T09:47:08.325Z,1.00
2019-01-03T09:49:37.508Z,1.00
2019-01-03T09:52:06.609Z,1.00
2019-01-03T09:54:35.740Z,1.00
2019-01-03T09:57:04.985Z,1.00
2019-01-03T09:59:34.302Z,1.00
2019-01-03T10:02:03.466Z,1.00
2019-01-03T10:04:32.622Z,1.00
2019-01-03T10:07:01.785Z,1.00
2019-01-03T10:09:31.212Z,1.00
2019-01-03T10:12:00.307Z,1.00
2019-01-03T10:14:29.434Z,1.00
2019-01-03T10:16:58.763Z,1.00
2019-01-03T10:19:28.025Z,1.00
2019-01-03T10:21:57.194Z,1.00
2019-01-03T10:24:26.298Z,1.00
2019-01-03T10:26:55.491Z,1.00
2019-01-03T10:29:24.649Z,1.00
2019-01-03T10:31:53.959Z,1.00
2019-01-03T10:34:23.154Z,1.00
2019-01-03T10:36:52.312Z,1.00
2019-01-03T10:39:21.488Z,1.00
2019-01-03T10:41:50.888Z,1.00
2019-01-03T10:44:20.050Z,1.00
2019-01-03T10:46:49.257Z,1.00
2019-01-03T10:49:18.481Z,1.00
2019-01-03T10:51:47.675Z,1.00
2019-01-03T10:54:16.894Z,1.00
2019-01-03T10:56:46.073Z,1.00
2019-01-03T10:59:15.264Z,1.00
2019-01-03T11:01:44.469Z,1.00
2019-01-03T11:04:13.616Z,1.00
2019-01-03T11:06:42.868Z,1.00
2019-01-03T11:09:12.026Z,1.00
2019-01-03T11:11:41.158Z,1.00
2019-01-03T11:14:10.337Z,1.00
2019-01-03T11:16:39.539Z,1.00
2019-01-03T11:19:08.864Z,1.00
2019-01-03T11:21:38.111Z,1.00
2019-01-03T11:24:07.280Z,1.00
2019-01-03T11:26:36.419Z,1.00
2019-01-03T11:29:05.637Z,1.00
2019-01-03T11:31:34.821Z,1.00
2019-01-03T11:34:04.818Z,1.00
2019-01-03T11:36:38.689Z,1.00
2019-01-03T11:39:08.199Z,1.00
2019-01-03T11:41:37.401Z,1.00
2019-01-03T11:44:06.531Z,1.00
2019-01-03T11:46:35.692Z,1.00
2019-01-03T11:49:04.850Z,1.00
2019-01-03T11:51:34.067Z,1.00
2019-01-03T11:54:03.272Z,1.00
2019-01-03T11:56:32.442Z,1.00
2019-01-03T11:59:01.613Z,1.00
2019-01-03T12:01:30.822Z,1.00
2019-01-03T12:04:00.018Z,1.00
2019-01-03T12:06:29.171Z,1.00
2019-01-03T12:08:58.360Z,1.00
2019-01-03T12:11:27.520Z,1.00
2019-01-03T12:13:56.665Z,1.00
2019-01-03T12:16:25.811Z,1.00
2019-01-03T12:18:54.985Z,1.00
2019-01-03T12:21:28.099Z,1.00
2019-01-03T12:24:09.912Z,1.00
2019-01-03T12:26:39.028Z,1.00
2019-01-03T12:29:08.219Z,1.00
2019-01-03T12:31:37.362Z,1.00
2019-01-03T12:34:06.480Z,1.00
2019-01-03T12:36:35.705Z,1.00
2019-01-03T12:39:06.812Z,1.00
2019-01-03T12:41:35.972Z,1.00
2019-01-03T12:44:05.110Z,1.00
2019-01-03T12:46:34.204Z,1.00
2019-01-03T12:49:03.466Z,1.00
2019-01-03T12:51:32.637Z,1.00
2019-01-03T12:54:01.873Z,1.00
2019-01-03T12:56:30.982Z,1.00
2019-01-03T12:59:00.212Z,1.00
2019-01-03T13:01:29.337Z,1.00
2019-01-03T13:03:58.468Z,1.00
2019-01-03T13:06:27.613Z,1.00
2019-01-03T13:08:56.830Z,1.00
2019-01-03T13:11:25.990Z,1.00
2019-01-03T13:13:55.115Z,1.00
2019-01-03T13:16:24.299Z,1.00
2019-01-03T13:18:53.489Z,1.00
2019-01-03T13:21:22.691Z,1.00
2019-01-03T13:23:51.823Z,1.00
2019-01-03T13:26:20.936Z,1.00
2019-01-03T13:28:50.158Z,1.00
2019-01-03T13:31:19.326Z,1.00
2019-01-03T13:33:48.500Z,1.00
2019-01-03T13:36:17.663Z,1.00
2019-01-03T13:38:46.858Z,1.00
2019-01-03T13:41:15.976Z,1.00
2019-01-03T13:43:45.131Z,1.00
2019-01-03T13:46:14.264Z,1.00
2019-01-03T13:48:43.464Z,1.00
2019-01-03T13:51:12.629Z,1.00
2019-01-03T13:53:41.806Z,1.00
2019-01-03T13:56:10.959Z,1.00
2019-01-03T13:58:40.182Z,1.00
2019-01-03T14:01:09.347Z,1.00
2019-01-03T14:03:38.551Z,1.00
2019-01-03T14:06:07.768Z,1.00
2019-01-03T14:08:36.945Z,1.00
2019-01-03T14:11:06.090Z,1.00
2019-01-03T14:13:35.232Z,1.00
2019-01-03T14:16:04.402Z,1.00
2019-01-03T14:18:33.557Z,1.00
2019-01-03T14:21:02.708Z,1.00
2019-01-03T14:23:31.918Z,1.00
2019-01-03T14:26:01.068Z,1.00
2019-01-03T14:28:30.712Z,1.00
2019-01-03T14:30:59.842Z,67.30
2019-01-03T14:33:29.270Z,70.90
2019-01-03T14:35:58.413Z,71.20
2019-01-03T14:38:27.558Z,70.50
2019-01-03T14:40:56.772Z,70.60
2019-01-03T14:43:25.984Z,70.70
2019-01-03T14:45:55.137Z,70.80
2019-01-03T14:48:24.651Z,73.10
2019-01-03T14:50:53.776Z,71.10
2019-01-03T14:53:22.927Z,66.80
2019-01-03T14:55:52.109Z,66.20
2019-01-03T14:58:21.541Z,66.20
2019-01-03T15:00:50.699Z,67.00
2019-01-03T15:03:19.841Z,69.30
2019-01-03T15:05:49.979Z,70.20
2019-01-03T15:08:19.208Z,69.70
2019-01-03T15:10:48.331Z,68.90
2019-01-03T15:13:17.619Z,67.60
2019-01-03T15:15:46.747Z,68.10
2019-01-03T15:18:15.888Z,69.00
2019-01-03T15:20:45.058Z,68.10
2019-01-03T15:23:14.364Z,69.30
2019-01-03T15:25:43.507Z,69.40
2019-01-03T15:28:12.670Z,69.50
2019-01-03T15:30:41.793Z,69.60
2019-01-03T15:33:10.950Z,70.00
2019-01-03T15:35:40.100Z,70.50
2019-01-03T15:38:09.287Z,71.20
2019-01-03T15:40:38.429Z,70.50
2019-01-03T15:43:07.993Z,71.00
2019-01-03T15:45:37.183Z,71.20
2019-01-03T15:48:06.376Z,71.90
2019-01-03T15:50:35.538Z,71.80
2019-01-03T15:53:04.720Z,71.30
2019-01-03T15:55:33.899Z,71.70
2019-01-03T15:58:03.036Z,72.60
2019-01-03T16:00:32.197Z,71.70
2019-01-03T16:03:01.380Z,72.60
2019-01-03T16:05:30.528Z,70.40
2019-01-03T16:07:59.718Z,70.40
2019-01-03T16:10:28.862Z,70.40
2019-01-03T16:12:58.048Z,70.50
2019-01-03T16:15:27.191Z,70.90
2019-01-03T16:17:56.423Z,70.40
2019-01-03T16:20:25.686Z,70.80
2019-01-03T16:22:54.918Z,70.50
2019-01-03T16:25:24.040Z,71.70
2019-01-03T16:27:53.288Z,70.90
2019-01-03T16:30:22.528Z,70.60
2019-01-03T16:32:51.710Z,71.30
2019-01-03T16:35:20.849Z,71.30
2019-01-03T16:37:50.031Z,70.80
2019-01-03T16:40:19.180Z,71.60
2019-01-03T16:42:48.334Z,71.70
2019-01-03T16:45:17.596Z,71.70
2019-01-03T16:47:46.743Z,72.20
2019-01-03T16:50:17.505Z,72.60
2019-01-03T16:52:46.746Z,72.50
2019-01-03T16:55:15.977Z,72.40
2019-01-03T16:57:45.142Z,72.70
2019-01-03T17:00:14.341Z,72.70
2019-01-03T17:02:43.491Z,73.00
2019-01-03T17:05:12.905Z,72.70
2019-01-03T17:07:42.072Z,72.70
2019-01-03T17:10:16.307Z,72.50
2019-01-03T17:12:45.479Z,72.50
2019-01-03T17:15:14.703Z,73.10
2019-01-03T17:17:43.886Z,73.40
2019-01-03T17:20:13.033Z,73.80
2019-01-03T17:22:42.609Z,74.20
2019-01-03T17:25:13.433Z,74.60
2019-01-03T17:27:42.587Z,74.60
2019-01-03T17:30:12.544Z,74.60
2019-01-03T17:32:41.744Z,74.30
2019-01-03T17:35:12.063Z,73.80
2019-01-03T17:37:41.278Z,73.50
2019-01-03T17:40:12.539Z,74.00
2019-01-03T17:42:42.895Z,74.60
2019-01-03T17:45:12.151Z,74.50
2019-01-03T17:47:41.360Z,74.60
2019-01-03T17:50:11.074Z,74.10
2019-01-03T17:52:40.243Z,74.10
2019-01-03T17:55:09.582Z,73.90
2019-01-03T17:57:38.751Z,74.20
2019-01-03T18:00:14.200Z,74.60
2019-01-03T18:02:43.489Z,74.30
2019-01-03T18:05:12.665Z,74.10
2019-01-03T18:07:41.825Z,74.50
2019-01-03T18:10:12.438Z,74.50
2019-01-03T18:12:41.600Z,74.50
2019-01-03T18:15:10.806Z,74.50
2019-01-03T18:17:40.052Z,74.50
2019-01-03T18:20:12.307Z,74.50
2019-01-03T18:22:41.489Z,74.40
2019-01-03T18:25:10.641Z,74.40
2019-01-03T18:27:39.792Z,74.70
2019-01-03T18:30:10.636Z,74.80
2019-01-03T18:32:39.841Z,74.70
2019-01-03T18:35:09.016Z,74.70
2019-01-03T18:37:38.247Z,74.40
2019-01-03T18:40:09.888Z,74.40
2019-01-03T18:42:39.062Z,73.90
2019-01-03T18:45:10.630Z,74.50
2019-01-03T18:47:39.875Z,73.40
2019-01-03T18:50:09.178Z,73.70
2019-01-03T18:52:38.507Z,73.40
2019-01-03T18:55:08.298Z,72.80
2019-01-03T18:57:37.669Z,69.80
2019-01-03T19:00:08.253Z,68.50
2019-01-03T19:02:37.496Z,68.20
2019-01-03T19:05:06.680Z,68.40
2019-01-03T19:07:35.945Z,68.40
2019-01-03T19:10:06.393Z,68.30
2019-01-03T19:12:35.680Z,67.90
2019-01-03T19:15:05.230Z,66.90
2019-01-03T19:17:34.390Z,66.60
2019-01-03T19:20:04.214Z,62.10
2019-01-03T19:22:33.375Z,62.90
2019-01-03T19:25:02.691Z,62.20
2019-01-03T19:27:31.907Z,63.20
2019-01-03T19:30:01.112Z,58.40
2019-01-03T19:32:30.264Z,58.50
2019-01-03T19:34:59.552Z,58.30
2019-01-03T19:37:28.672Z,58.20
2019-01-03T19:39:57.884Z,57.90
2019-01-03T19:42:27.136Z,57.00
2019-01-03T19:44:56.457Z,57.40
2019-01-03T19:47:25.618Z,57.00
2019-01-03T19:49:54.771Z,55.50
2019-01-03T19:52:23.923Z,55.50
2019-01-03T19:54:53.131Z,55.50
2019-01-03T19:57:22.312Z,55.40
2019-01-03T19:59:51.480Z,55.60
2019-01-03T20:02:20.656Z,55.60
2019-01-03T20:04:49.819Z,55.50
2019-01-03T20:07:19.118Z,55.50
2019-01-03T20:09:48.388Z,55.30
2019-01-03T20:12:17.603Z,1.00
2019-01-03T20:14:46.883Z,1.00
2019-01-03T20:17:16.021Z,1.00
2019-01-03T20:19:45.224Z,1.00
2019-01-03T20:22:14.602Z,1.00
2019-01-03T20:24:43.808Z,1.00
2019-01-03T20:27:13.097Z,1.00
2019-01-03T20:29:42.291Z,1.00
2019-01-03T20:32:11.517Z,1.00
2019-01-03T20:34:40.657Z,1.00
2019-01-03T20:37:09.823Z,1.00
2019-01-03T20:39:38.975Z,1.00
2019-01-03T20:42:08.183Z,1.00
2019-01-03T20:44:37.370Z,1.00
2019-01-03T20:47:06.581Z,1.00
2019-01-03T20:49:35.801Z,1.00
2019-01-03T20:52:05.061Z,1.00
2019-01-03T20:54:34.434Z,1.00
2019-01-03T20:57:03.716Z,1.00
2019-01-03T20:59:32.915Z,1.00
2019-01-03T21:02:02.183Z,1.00
2019-01-03T21:04:31.484Z,1.00
2019-01-03T21:07:00.710Z,1.00
2019-01-03T21:09:29.890Z,1.00
2019-01-03T21:11:59.062Z,1.00
2019-01-03T21:14:28.210Z,1.00
2019-01-03T21:16:57.376Z,1.00
2019-01-03T21:19:26.525Z,1.00
2019-01-03T21:21:55.770Z,1.00
2019-01-03T21:24:24.994Z,1.00
2019-01-03T21:26:54.254Z,1.00
2019-01-03T21:29:23.525Z,1.00
2019-01-03T21:31:52.831Z,1.00
2019-01-03T21:34:22.066Z,1.00
2019-01-03T21:36:51.242Z,1.00
2019-01-03T21:39:20.770Z,1.00
2019-01-03T21:41:50.009Z,1.00
2019-01-03T21:44:19.247Z,1.00
2019-01-03T21:46:48.529Z,1.00
2019-01-03T21:49:17.698Z,1.00
2019-01-03T21:51:46.955Z,1.00
2019-01-03T21:54:18.767Z,1.00
2019-01-03T21:56:48.172Z,1.00
2019-01-03T21:59:17.589Z,1.00
2019-01-03T22:01:46.735Z,1.00
2019-01-03T22:04:15.916Z,1.00
2019-01-03T22:06:45.104Z,1.00
2019-01-03T22:09:14.241Z,1.00
2019-01-03T22:11:43.431Z,1.00
2019-01-03T22:14:12.608Z,1.00
2019-01-03T22:16:42.055Z,1.00
2019-01-03T22:19:11.182Z,1.00
2019-01-03T22:21:40.336Z,1.00
2019-01-03T22:24:09.584Z,1.00
2019-01-03T22:26:38.726Z,1.00
2019-01-03T22:29:08.016Z,1.00
2019-01-03T22:31:37.135Z,1.00
2019-01-03T22:34:06.296Z,1.00
2019-01-03T22:36:35.563Z,1.00
2019-01-03T22:39:05.405Z,1.00
2019-01-03T22:41:34.604Z,1.00
2019-01-03T22:44:03.802Z,1.00
2019-01-03T22:46:32.995Z,1.00
2019-01-03T22:49:02.157Z,1.00
2019-01-03T22:51:31.269Z,1.00
2019-01-03T22:54:00.454Z,1.00
2019-01-03T22:56:29.596Z,1.00
2019-01-03T22:58:58.747Z,1.00
2019-01-03T23:01:27.997Z,1.00
2019-01-03T23:03:57.162Z,1.00
2019-01-03T23:06:26.525Z,1.00
2019-01-03T23:08:55.674Z,1.00
2019-01-03T23:11:24.903Z,1.00
2019-01-03T23:13:54.030Z,1.00
2019-01-03T23:16:23.172Z,1.00
2019-01-03T23:18:52.315Z,1.00
2019-01-03T23:21:21.461Z,1.00
2019-01-03T23:23:50.701Z,1.00
2019-01-03T23:26:19.777Z,1.00
2019-01-03T23:28:49.036Z,1.00
2019-01-03T23:31:18.244Z,1.00
2019-01-03T23:33:47.444Z,1.00
2019-01-03T23:36:16.635Z,1.00
2019-01-03T23:38:45.745Z,1.00
2019-01-03T23:41:14.990Z,1.00
2019-01-03T23:43:44.367Z,1.00
2019-01-03T23:46:13.469Z,1.00
2019-01-03T23:48:42.668Z,1.00
2019-01-03T23:51:11.798Z,1.00
2019-01-03T23:53:40.953Z,1.00
2019-01-03T23:56:10.117Z,1.00
2019-01-03T23:58:39.561Z,1.00
